sensor_id;sensor_type;location;lat;lon;timestamp;temperature;humidity
7155;DHT22;3619;53.784;10.440;2023-06-04T05:20:18;9.80;99.90
7155;DHT22;3619;53.784;10.440;2023-06-04T05:27:52;10.10;99.90
7155;DHT22;3619;53.784;10.440;2023-06-04T05:30:36;10.40;99.90
7155;DHT22;3619;53.784;10.440;2023-06-04T05:33:39;10.60;99.90
7155;DHT22;3619;53.784;10.440;2023-06-04T05:43:03;11.20;99.90
7155;DHT22;3619;53.784;10.440;2023-06-04T05:46:07;11.40;99.90
7155;DHT22;3619;53.784;10.440;2023-06-04T05:49:05;11.50;99.90
7155;DHT22;3619;53.784;10.440;2023-06-04T05:51:37;11.50;99.90
7155;DHT22;3619;53.784;10.440;2023-06-04T05:54:04;11.60;99.90
7155;DHT22;3619;53.784;10.440;2023-06-04T05:56:55;11.70;99.90
7155;DHT22;3619;53.784;10.440;2023-06-04T06:02:47;12.00;99.90
7155;DHT22;3619;53.784;10.440;2023-06-04T06:05:20;12.10;99.90
7155;DHT22;3619;53.784;10.440;2023-06-04T06:07:47;12.40;99.90
7155;DHT22;3619;53.784;10.440;2023-06-04T06:10:18;12.40;99.90
7155;DHT22;3619;53.784;10.440;2023-06-04T06:12:46;12.60;99.90
7155;DHT22;3619;53.784;10.440;2023-06-04T06:18:38;12.70;99.90
7155;DHT22;3619;53.784;10.440;2023-06-04T06:21:05;13.00;99.90
7155;DHT22;3619;53.784;10.440;2023-06-04T06:23:32;13.20;99.90
7155;DHT22;3619;53.784;10.440;2023-06-04T06:25:59;13.30;99.90
7155;DHT22;3619;53.784;10.440;2023-06-04T06:28:28;13.40;99.90
7155;DHT22;3619;53.784;10.440;2023-06-04T06:30:55;13.30;99.90
7155;DHT22;3619;53.784;10.440;2023-06-04T06:33:22;13.50;99.90
7155;DHT22;3619;53.784;10.440;2023-06-04T06:35:54;13.70;99.90
7155;DHT22;3619;53.784;10.440;2023-06-04T06:38:35;13.70;99.90
7155;DHT22;3619;53.784;10.440;2023-06-04T06:41:02;13.70;99.90
7155;DHT22;3619;53.784;10.440;2023-06-04T06:43:32;13.90;99.90
7155;DHT22;3619;53.784;10.440;2023-06-04T06:45:59;14.10;99.90
7155;DHT22;3619;53.784;10.440;2023-06-04T06:48:26;14.20;99.90
7155;DHT22;3619;53.784;10.440;2023-06-04T06:50:53;14.40;99.90
7155;DHT22;3619;53.784;10.440;2023-06-04T06:53:20;14.40;99.90
7155;DHT22;3619;53.784;10.440;2023-06-04T06:55:47;14.50;99.90
7155;DHT22;3619;53.784;10.440;2023-06-04T06:58:14;14.40;99.90
7155;DHT22;3619;53.784;10.440;2023-06-04T07:00:44;14.50;99.90
7155;DHT22;3619;53.784;10.440;2023-06-04T07:03:11;14.60;99.90
7155;DHT22;3619;53.784;10.440;2023-06-04T07:05:38;14.50;99.90
7155;DHT22;3619;53.784;10.440;2023-06-04T07:08:05;14.50;99.90
7155;DHT22;3619;53.784;10.440;2023-06-04T07:10:47;14.70;99.90
7155;DHT22;3619;53.784;10.440;2023-06-04T07:13:25;14.90;99.90
7155;DHT22;3619;53.784;10.440;2023-06-04T07:16:04;15.10;99.90
7155;DHT22;3619;53.784;10.440;2023-06-04T07:18:30;15.30;99.90
7155;DHT22;3619;53.784;10.440;2023-06-04T07:20:58;15.30;99.90
7155;DHT22;3619;53.784;10.440;2023-06-04T07:23:24;15.60;99.90
7155;DHT22;3619;53.784;10.440;2023-06-04T07:25:54;15.80;99.90
7155;DHT22;3619;53.784;10.440;2023-06-04T07:28:54;16.00;99.90
7155;DHT22;3619;53.784;10.440;2023-06-04T07:32:01;16.10;99.90
7155;DHT22;3619;53.784;10.440;2023-06-04T07:34:43;16.20;99.90
7155;DHT22;3619;53.784;10.440;2023-06-04T07:37:30;16.00;99.90
7155;DHT22;3619;53.784;10.440;2023-06-04T07:40:10;15.90;99.90
7155;DHT22;3619;53.784;10.440;2023-06-04T07:42:37;16.00;99.90
7155;DHT22;3619;53.784;10.440;2023-06-04T07:45:08;16.30;99.90
7155;DHT22;3619;53.784;10.440;2023-06-04T07:47:37;16.60;99.90
7155;DHT22;3619;53.784;10.440;2023-06-04T07:50:06;16.60;99.90
7155;DHT22;3619;53.784;10.440;2023-06-04T07:52:33;16.60;99.90
7155;DHT22;3619;53.784;10.440;2023-06-04T07:55:03;16.70;99.90
7155;DHT22;3619;53.784;10.440;2023-06-04T07:57:30;16.70;99.90
7155;DHT22;3619;53.784;10.440;2023-06-04T07:59:58;16.50;99.90
7155;DHT22;3619;53.784;10.440;2023-06-04T08:02:25;16.70;99.90
7155;DHT22;3619;53.784;10.440;2023-06-04T08:05:01;16.70;99.90
7155;DHT22;3619;53.784;10.440;2023-06-04T08:07:30;16.80;99.90
7155;DHT22;3619;53.784;10.440;2023-06-04T08:09:57;17.10;99.90
7155;DHT22;3619;53.784;10.440;2023-06-04T08:12:50;17.50;99.90
7155;DHT22;3619;53.784;10.440;2023-06-04T08:15:22;17.40;99.90
7155;DHT22;3619;53.784;10.440;2023-06-04T08:17:49;17.30;99.90
7155;DHT22;3619;53.784;10.440;2023-06-04T08:20:20;17.40;99.90
7155;DHT22;3619;53.784;10.440;2023-06-04T08:22:47;17.70;99.90
7155;DHT22;3619;53.784;10.440;2023-06-04T08:25:14;17.80;99.90
7155;DHT22;3619;53.784;10.440;2023-06-04T08:27:43;17.80;99.90
7155;DHT22;3619;53.784;10.440;2023-06-04T08:30:10;17.60;99.90
7155;DHT22;3619;53.784;10.440;2023-06-04T08:32:37;17.40;99.90
7155;DHT22;3619;53.784;10.440;2023-06-04T08:35:06;17.70;99.90
7155;DHT22;3619;53.784;10.440;2023-06-04T08:37:35;17.90;99.90
7155;DHT22;3619;53.784;10.440;2023-06-04T08:40:02;17.80;99.90
7155;DHT22;3619;53.784;10.440;2023-06-04T08:42:37;17.60;99.90
7155;DHT22;3619;53.784;10.440;2023-06-04T08:45:11;17.70;99.90
7155;DHT22;3619;53.784;10.440;2023-06-04T08:47:47;17.90;99.90
7155;DHT22;3619;53.784;10.440;2023-06-04T08:50:20;18.50;99.90
7155;DHT22;3619;53.784;10.440;2023-06-04T08:52:51;19.20;99.90
7155;DHT22;3619;53.784;10.440;2023-06-04T08:55:18;19.40;99.90
7155;DHT22;3619;53.784;10.440;2023-06-04T08:57:45;19.20;99.90
7155;DHT22;3619;53.784;10.440;2023-06-04T09:00:14;19.00;99.90
7155;DHT22;3619;53.784;10.440;2023-06-04T09:02:42;18.50;99.90
7155;DHT22;3619;53.784;10.440;2023-06-04T09:05:10;18.30;99.90
7155;DHT22;3619;53.784;10.440;2023-06-04T09:07:45;18.20;99.90
7155;DHT22;3619;53.784;10.440;2023-06-04T09:10:18;18.20;99.90
7155;DHT22;3619;53.784;10.440;2023-06-04T09:12:47;18.30;99.90
7155;DHT22;3619;53.784;10.440;2023-06-04T09:15:19;18.20;99.90
7155;DHT22;3619;53.784;10.440;2023-06-04T09:18:06;18.60;99.90
7155;DHT22;3619;53.784;10.440;2023-06-04T09:20:36;18.90;99.90
7155;DHT22;3619;53.784;10.440;2023-06-04T09:23:48;18.60;99.90
7155;DHT22;3619;53.784;10.440;2023-06-04T09:26:16;18.40;99.90
7155;DHT22;3619;53.784;10.440;2023-06-04T09:28:47;18.40;99.90
7155;DHT22;3619;53.784;10.440;2023-06-04T09:31:14;18.50;99.90
7155;DHT22;3619;53.784;10.440;2023-06-04T09:33:45;19.00;99.90
7155;DHT22;3619;53.784;10.440;2023-06-04T09:36:12;19.60;99.90
7155;DHT22;3619;53.784;10.440;2023-06-04T09:38:39;19.60;99.90
7155;DHT22;3619;53.784;10.440;2023-06-04T09:41:25;19.50;99.90
7155;DHT22;3619;53.784;10.440;2023-06-04T09:44:02;19.20;99.90
7155;DHT22;3619;53.784;10.440;2023-06-04T09:46:30;19.20;99.90
7155;DHT22;3619;53.784;10.440;2023-06-04T09:49:01;18.80;99.90
7155;DHT22;3619;53.784;10.440;2023-06-04T09:51:28;19.00;99.90
7155;DHT22;3619;53.784;10.440;2023-06-04T09:53:57;19.40;99.90
7155;DHT22;3619;53.784;10.440;2023-06-04T09:56:27;19.30;99.90
7155;DHT22;3619;53.784;10.440;2023-06-04T09:58:56;19.10;99.90
7155;DHT22;3619;53.784;10.440;2023-06-04T10:01:30;18.90;99.90
7155;DHT22;3619;53.784;10.440;2023-06-04T10:04:03;19.20;99.90
7155;DHT22;3619;53.784;10.440;2023-06-04T10:06:36;19.50;99.90
7155;DHT22;3619;53.784;10.440;2023-06-04T10:09:06;19.90;99.90
7155;DHT22;3619;53.784;10.440;2023-06-04T10:11:38;20.10;99.90
7155;DHT22;3619;53.784;10.440;2023-06-04T10:14:13;20.00;99.90
7155;DHT22;3619;53.784;10.440;2023-06-04T10:16:50;19.50;99.90
7155;DHT22;3619;53.784;10.440;2023-06-04T10:19:18;19.50;99.90
7155;DHT22;3619;53.784;10.440;2023-06-04T10:21:45;19.70;99.90
7155;DHT22;3619;53.784;10.440;2023-06-04T10:24:12;20.00;99.90
7155;DHT22;3619;53.784;10.440;2023-06-04T10:26:42;20.40;99.90
7155;DHT22;3619;53.784;10.440;2023-06-04T10:29:09;20.50;99.90
7155;DHT22;3619;53.784;10.440;2023-06-04T10:31:47;20.70;99.90
7155;DHT22;3619;53.784;10.440;2023-06-04T10:34:18;20.70;99.90
7155;DHT22;3619;53.784;10.440;2023-06-04T10:36:45;20.50;99.90
7155;DHT22;3619;53.784;10.440;2023-06-04T10:39:12;20.50;99.90
7155;DHT22;3619;53.784;10.440;2023-06-04T10:41:39;20.30;99.90
7155;DHT22;3619;53.784;10.440;2023-06-04T10:44:07;20.30;99.90
7155;DHT22;3619;53.784;10.440;2023-06-04T10:46:41;20.40;99.90
7155;DHT22;3619;53.784;10.440;2023-06-04T10:49:25;20.70;99.90
7155;DHT22;3619;53.784;10.440;2023-06-04T10:51:52;21.00;99.90
7155;DHT22;3619;53.784;10.440;2023-06-04T10:54:23;20.80;99.90
7155;DHT22;3619;53.784;10.440;2023-06-04T10:56:52;20.90;99.90
7155;DHT22;3619;53.784;10.440;2023-06-04T10:59:21;20.90;99.90
7155;DHT22;3619;53.784;10.440;2023-06-04T11:01:51;20.70;99.90
7155;DHT22;3619;53.784;10.440;2023-06-04T11:06:46;20.70;99.90
7155;DHT22;3619;53.784;10.440;2023-06-04T11:09:14;20.30;99.90
7155;DHT22;3619;53.784;10.440;2023-06-04T11:11:57;20.40;99.90
7155;DHT22;3619;53.784;10.440;2023-06-04T11:14:30;20.90;99.90
7155;DHT22;3619;53.784;10.440;2023-06-04T11:17:25;21.60;99.90
7155;DHT22;3619;53.784;10.440;2023-06-04T11:23:21;22.20;99.90
7155;DHT22;3619;53.784;10.440;2023-06-04T11:25:52;21.90;99.90
7155;DHT22;3619;53.784;10.440;2023-06-04T11:28:40;21.60;99.90
7155;DHT22;3619;53.784;10.440;2023-06-04T11:31:13;21.50;99.90
7155;DHT22;3619;53.784;10.440;2023-06-04T11:33:44;21.60;99.90
7155;DHT22;3619;53.784;10.440;2023-06-04T11:36:22;22.00;99.90
7155;DHT22;3619;53.784;10.440;2023-06-04T11:38:54;22.30;99.90
7155;DHT22;3619;53.784;10.440;2023-06-04T11:41:21;22.10;99.90
7155;DHT22;3619;53.784;10.440;2023-06-04T11:43:52;21.80;99.90
7155;DHT22;3619;53.784;10.440;2023-06-04T11:46:21;21.80;99.90
7155;DHT22;3619;53.784;10.440;2023-06-04T11:48:50;22.10;99.90
7155;DHT22;3619;53.784;10.440;2023-06-04T11:51:17;22.40;99.90
7155;DHT22;3619;53.784;10.440;2023-06-04T11:53:44;22.80;99.90
7155;DHT22;3619;53.784;10.440;2023-06-04T11:56:12;22.90;99.90
7155;DHT22;3619;53.784;10.440;2023-06-04T11:58:39;22.40;99.90
7155;DHT22;3619;53.784;10.440;2023-06-04T12:08:20;20.30;99.90
7155;DHT22;3619;53.784;10.440;2023-06-04T12:10:57;21.00;99.90
7155;DHT22;3619;53.784;10.440;2023-06-04T12:13:37;21.30;99.80
7155;DHT22;3619;53.784;10.440;2023-06-04T12:16:39;21.30;99.90
7155;DHT22;3619;53.784;10.440;2023-06-04T12:29:32;21.70;99.90
7155;DHT22;3619;53.784;10.440;2023-06-04T12:32:49;21.90;99.90
7155;DHT22;3619;53.784;10.440;2023-06-04T12:35:30;21.50;99.90
7155;DHT22;3619;53.784;10.440;2023-06-04T12:37:57;21.50;99.90
7155;DHT22;3619;53.784;10.440;2023-06-04T12:40:23;21.60;99.90
7155;DHT22;3619;53.784;10.440;2023-06-04T12:42:50;21.40;99.90
7155;DHT22;3619;53.784;10.440;2023-06-04T12:45:21;21.40;99.90
7155;DHT22;3619;53.784;10.440;2023-06-04T12:47:48;21.70;99.90
7155;DHT22;3619;53.784;10.440;2023-06-04T12:50:15;22.30;99.70
7155;DHT22;3619;53.784;10.440;2023-06-04T12:52:44;21.80;99.90
7155;DHT22;3619;53.784;10.440;2023-06-04T12:55:11;21.80;99.90
7155;DHT22;3619;53.784;10.440;2023-06-04T12:57:38;22.00;99.90
7155;DHT22;3619;53.784;10.440;2023-06-04T13:00:06;22.20;99.90
7155;DHT22;3619;53.784;10.440;2023-06-04T13:02:34;22.80;99.90
7155;DHT22;3619;53.784;10.440;2023-06-04T13:05:02;23.10;99.90
7155;DHT22;3619;53.784;10.440;2023-06-04T13:07:30;23.20;99.90
7155;DHT22;3619;53.784;10.440;2023-06-04T13:09:57;23.30;99.90
7155;DHT22;3619;53.784;10.440;2023-06-04T13:12:24;23.40;99.90
7155;DHT22;3619;53.784;10.440;2023-06-04T13:14:51;23.90;99.90
7155;DHT22;3619;53.784;10.440;2023-06-04T13:17:17;23.90;99.90
7155;DHT22;3619;53.784;10.440;2023-06-04T13:19:46;23.90;99.90
7155;DHT22;3619;53.784;10.440;2023-06-04T13:22:13;23.60;99.60
7155;DHT22;3619;53.784;10.440;2023-06-04T13:24:40;23.80;99.90
7155;DHT22;3619;53.784;10.440;2023-06-04T13:27:07;23.90;99.90
7155;DHT22;3619;53.784;10.440;2023-06-04T13:29:34;24.10;99.90
7155;DHT22;3619;53.784;10.440;2023-06-04T13:32:00;24.50;99.70
7155;DHT22;3619;53.784;10.440;2023-06-04T13:34:27;24.60;97.20
7155;DHT22;3619;53.784;10.440;2023-06-04T13:36:57;24.30;96.40
7155;DHT22;3619;53.784;10.440;2023-06-04T13:39:24;24.20;98.90
7155;DHT22;3619;53.784;10.440;2023-06-04T13:41:51;24.20;97.90
7155;DHT22;3619;53.784;10.440;2023-06-04T13:44:17;24.30;98.00
7155;DHT22;3619;53.784;10.440;2023-06-04T13:46:44;24.60;98.20
7155;DHT22;3619;53.784;10.440;2023-06-04T13:49:13;24.30;98.00
7155;DHT22;3619;53.784;10.440;2023-06-04T13:51:40;24.20;96.10
7155;DHT22;3619;53.784;10.440;2023-06-04T13:54:08;24.00;97.40
7155;DHT22;3619;53.784;10.440;2023-06-04T13:56:35;24.10;97.20
7155;DHT22;3619;53.784;10.440;2023-06-04T13:59:07;23.70;97.40
7155;DHT22;3619;53.784;10.440;2023-06-04T14:01:36;23.30;96.10
7155;DHT22;3619;53.784;10.440;2023-06-04T14:04:03;22.80;98.20
7155;DHT22;3619;53.784;10.440;2023-06-04T14:06:32;22.90;98.70
7155;DHT22;3619;53.784;10.440;2023-06-04T14:09:02;23.10;98.40
7155;DHT22;3619;53.784;10.440;2023-06-04T14:11:45;23.30;98.50
7155;DHT22;3619;53.784;10.440;2023-06-04T14:14:17;22.90;96.80
7155;DHT22;3619;53.784;10.440;2023-06-04T14:16:44;22.40;96.80
7155;DHT22;3619;53.784;10.440;2023-06-04T14:19:11;22.50;99.90
7155;DHT22;3619;53.784;10.440;2023-06-04T14:21:38;22.80;99.90
7155;DHT22;3619;53.784;10.440;2023-06-04T14:24:05;22.90;97.10
7155;DHT22;3619;53.784;10.440;2023-06-04T14:26:32;22.90;98.40
7155;DHT22;3619;53.784;10.440;2023-06-04T14:29:00;23.20;98.20
7155;DHT22;3619;53.784;10.440;2023-06-04T14:31:27;23.50;99.90
7155;DHT22;3619;53.784;10.440;2023-06-04T14:33:54;23.90;99.00
7155;DHT22;3619;53.784;10.440;2023-06-04T14:36:21;24.20;98.40
7155;DHT22;3619;53.784;10.440;2023-06-04T14:38:49;24.50;99.90
7155;DHT22;3619;53.784;10.440;2023-06-04T14:41:16;24.50;98.40
7155;DHT22;3619;53.784;10.440;2023-06-04T14:43:46;24.00;97.00
7155;DHT22;3619;53.784;10.440;2023-06-04T14:46:16;23.60;98.70
7155;DHT22;3619;53.784;10.440;2023-06-04T14:48:43;23.60;99.60
7155;DHT22;3619;53.784;10.440;2023-06-04T14:51:10;23.60;99.90
7155;DHT22;3619;53.784;10.440;2023-06-04T14:53:36;23.50;98.20
7155;DHT22;3619;53.784;10.440;2023-06-04T14:56:05;23.50;99.40
7155;DHT22;3619;53.784;10.440;2023-06-04T14:58:37;23.20;99.00
7155;DHT22;3619;53.784;10.440;2023-06-04T15:01:04;22.90;99.50
7155;DHT22;3619;53.784;10.440;2023-06-04T15:03:32;22.60;98.50
7155;DHT22;3619;53.784;10.440;2023-06-04T15:05:59;22.40;98.10
7155;DHT22;3619;53.784;10.440;2023-06-04T15:08:26;22.30;99.90
7155;DHT22;3619;53.784;10.440;2023-06-04T15:10:53;22.50;99.90
7155;DHT22;3619;53.784;10.440;2023-06-04T15:13:22;22.60;99.90
7155;DHT22;3619;53.784;10.440;2023-06-04T15:15:49;22.50;99.90
7155;DHT22;3619;53.784;10.440;2023-06-04T15:18:16;22.50;99.90
7155;DHT22;3619;53.784;10.440;2023-06-04T15:20:47;22.60;99.90
7155;DHT22;3619;53.784;10.440;2023-06-04T15:23:14;22.60;99.90
7155;DHT22;3619;53.784;10.440;2023-06-04T15:25:43;22.30;99.90
7155;DHT22;3619;53.784;10.440;2023-06-04T15:28:11;22.30;99.90
7155;DHT22;3619;53.784;10.440;2023-06-04T15:30:37;22.30;99.90
7155;DHT22;3619;53.784;10.440;2023-06-04T15:33:04;22.10;99.90
7155;DHT22;3619;53.784;10.440;2023-06-04T15:35:31;21.80;99.90
7155;DHT22;3619;53.784;10.440;2023-06-04T15:38:01;21.60;99.90
7155;DHT22;3619;53.784;10.440;2023-06-04T15:40:28;21.50;99.90
7155;DHT22;3619;53.784;10.440;2023-06-04T15:42:55;21.60;99.90
7155;DHT22;3619;53.784;10.440;2023-06-04T15:45:24;21.70;99.90
7155;DHT22;3619;53.784;10.440;2023-06-04T15:47:51;21.60;99.90
7155;DHT22;3619;53.784;10.440;2023-06-04T15:50:18;21.50;99.90
7155;DHT22;3619;53.784;10.440;2023-06-04T15:52:47;21.50;99.90
7155;DHT22;3619;53.784;10.440;2023-06-04T15:55:18;21.70;99.90
7155;DHT22;3619;53.784;10.440;2023-06-04T15:57:46;21.50;99.60
7155;DHT22;3619;53.784;10.440;2023-06-04T16:00:14;21.30;99.90
7155;DHT22;3619;53.784;10.440;2023-06-04T16:02:40;21.30;99.90
7155;DHT22;3619;53.784;10.440;2023-06-04T16:05:07;21.30;99.90
7155;DHT22;3619;53.784;10.440;2023-06-04T16:07:34;21.70;99.90
7155;DHT22;3619;53.784;10.440;2023-06-04T16:10:01;21.90;99.90
7155;DHT22;3619;53.784;10.440;2023-06-04T16:12:29;22.00;99.90
7155;DHT22;3619;53.784;10.440;2023-06-04T16:14:56;21.90;99.90
7155;DHT22;3619;53.784;10.440;2023-06-04T16:17:23;21.80;99.90
7155;DHT22;3619;53.784;10.440;2023-06-04T16:19:50;21.80;99.90
7155;DHT22;3619;53.784;10.440;2023-06-04T16:22:17;22.00;99.90
7155;DHT22;3619;53.784;10.440;2023-06-04T16:24:46;21.90;99.90
7155;DHT22;3619;53.784;10.440;2023-06-04T16:27:13;22.00;99.90
7155;DHT22;3619;53.784;10.440;2023-06-04T16:29:41;21.80;99.90
7155;DHT22;3619;53.784;10.440;2023-06-04T16:32:08;22.10;99.90
7155;DHT22;3619;53.784;10.440;2023-06-04T16:34:38;21.90;99.90
7155;DHT22;3619;53.784;10.440;2023-06-04T16:37:05;21.70;99.70
7155;DHT22;3619;53.784;10.440;2023-06-04T16:39:32;21.50;99.90
7155;DHT22;3619;53.784;10.440;2023-06-04T16:42:00;21.30;99.90
7155;DHT22;3619;53.784;10.440;2023-06-04T16:44:28;21.30;99.90
7155;DHT22;3619;53.784;10.440;2023-06-04T16:46:56;21.30;99.90
7155;DHT22;3619;53.784;10.440;2023-06-04T16:49:23;21.30;99.90
7155;DHT22;3619;53.784;10.440;2023-06-04T16:51:50;21.20;99.90
7155;DHT22;3619;53.784;10.440;2023-06-04T16:54:17;21.20;99.90
7155;DHT22;3619;53.784;10.440;2023-06-04T16:56:46;21.10;99.90
7155;DHT22;3619;53.784;10.440;2023-06-04T16:59:31;21.00;99.90
7155;DHT22;3619;53.784;10.440;2023-06-04T17:02:18;20.90;99.90
7155;DHT22;3619;53.784;10.440;2023-06-04T17:05:06;20.50;99.90
7155;DHT22;3619;53.784;10.440;2023-06-04T17:07:37;20.00;99.90
7155;DHT22;3619;53.784;10.440;2023-06-04T17:10:08;19.40;99.90
7155;DHT22;3619;53.784;10.440;2023-06-04T17:13:15;19.20;99.90
7155;DHT22;3619;53.784;10.440;2023-06-04T17:15:43;18.90;99.90
7155;DHT22;3619;53.784;10.440;2023-06-04T17:18:20;18.50;99.90
7155;DHT22;3619;53.784;10.440;2023-06-04T17:21:17;18.30;99.90
7155;DHT22;3619;53.784;10.440;2023-06-04T17:23:46;18.20;99.90
7155;DHT22;3619;53.784;10.440;2023-06-04T17:26:15;18.10;99.90
7155;DHT22;3619;53.784;10.440;2023-06-04T17:28:44;18.10;99.90
7155;DHT22;3619;53.784;10.440;2023-06-04T17:31:11;17.90;99.90
7155;DHT22;3619;53.784;10.440;2023-06-04T17:33:43;17.80;99.90
7155;DHT22;3619;53.784;10.440;2023-06-04T17:36:10;17.80;99.90
7155;DHT22;3619;53.784;10.440;2023-06-04T17:38:37;17.70;99.90
7155;DHT22;3619;53.784;10.440;2023-06-04T17:41:07;17.70;99.90
7155;DHT22;3619;53.784;10.440;2023-06-04T17:43:35;17.50;99.90
7155;DHT22;3619;53.784;10.440;2023-06-04T17:46:05;17.30;99.90
7155;DHT22;3619;53.784;10.440;2023-06-04T17:48:33;17.20;99.90
7155;DHT22;3619;53.784;10.440;2023-06-04T17:51:04;17.20;99.90
7155;DHT22;3619;53.784;10.440;2023-06-04T17:53:39;17.30;99.90
7155;DHT22;3619;53.784;10.440;2023-06-04T17:56:26;17.30;99.90
7155;DHT22;3619;53.784;10.440;2023-06-04T17:58:55;17.20;99.90
7155;DHT22;3619;53.784;10.440;2023-06-04T18:01:23;17.20;99.90
7155;DHT22;3619;53.784;10.440;2023-06-04T18:03:50;17.10;99.90
7155;DHT22;3619;53.784;10.440;2023-06-04T18:06:21;17.10;99.90
7155;DHT22;3619;53.784;10.440;2023-06-04T18:08:48;17.10;99.90
7155;DHT22;3619;53.784;10.440;2023-06-04T18:11:15;17.00;99.90
7155;DHT22;3619;53.784;10.440;2023-06-04T18:13:45;16.90;99.90
7155;DHT22;3619;53.784;10.440;2023-06-04T18:16:11;16.90;99.90
7155;DHT22;3619;53.784;10.440;2023-06-04T18:18:40;16.80;99.90
7155;DHT22;3619;53.784;10.440;2023-06-04T18:21:10;16.80;99.90
7155;DHT22;3619;53.784;10.440;2023-06-04T18:23:38;16.70;99.90
7155;DHT22;3619;53.784;10.440;2023-06-04T18:26:06;16.70;99.90
7155;DHT22;3619;53.784;10.440;2023-06-04T18:28:33;16.60;99.90
7155;DHT22;3619;53.784;10.440;2023-06-04T18:31:01;16.60;99.90
7155;DHT22;3619;53.784;10.440;2023-06-04T18:33:28;16.50;99.90
7155;DHT22;3619;53.784;10.440;2023-06-04T18:35:55;16.50;99.90
7155;DHT22;3619;53.784;10.440;2023-06-04T18:38:21;16.40;99.90
7155;DHT22;3619;53.784;10.440;2023-06-04T18:40:52;16.40;99.90
7155;DHT22;3619;53.784;10.440;2023-06-04T18:43:18;16.30;99.90
7155;DHT22;3619;53.784;10.440;2023-06-04T18:45:45;16.30;99.90
7155;DHT22;3619;53.784;10.440;2023-06-04T18:48:12;16.20;99.90
7155;DHT22;3619;53.784;10.440;2023-06-04T18:50:41;16.10;99.90
7155;DHT22;3619;53.784;10.440;2023-06-04T18:53:10;16.10;99.90
7155;DHT22;3619;53.784;10.440;2023-06-04T18:55:37;16.00;99.90
7155;DHT22;3619;53.784;10.440;2023-06-04T18:58:06;16.00;99.90
7155;DHT22;3619;53.784;10.440;2023-06-04T19:00:34;15.90;99.90
7155;DHT22;3619;53.784;10.440;2023-06-04T19:03:01;15.90;99.90
7155;DHT22;3619;53.784;10.440;2023-06-04T19:05:28;15.80;99.90
7155;DHT22;3619;53.784;10.440;2023-06-04T19:07:55;15.80;99.90
7155;DHT22;3619;53.784;10.440;2023-06-04T20:34:19;13.90;99.90
7155;DHT22;3619;53.784;10.440;2023-06-04T20:37:16;13.80;99.90
7155;DHT22;3619;53.784;10.440;2023-06-04T21:31:48;13.90;99.90
7155;DHT22;3619;53.784;10.440;2023-06-04T21:34:19;13.90;99.90
7155;DHT22;3619;53.784;10.440;2023-06-04T21:37:16;13.90;99.90
7155;DHT22;3619;53.784;10.440;2023-06-04T21:40:19;13.90;99.90
7155;DHT22;3619;53.784;10.440;2023-06-04T21:42:45;13.80;99.90
7155;DHT22;3619;53.784;10.440;2023-06-04T21:45:47;13.80;99.90
7155;DHT22;3619;53.784;10.440;2023-06-04T21:48:31;13.80;99.90
7155;DHT22;3619;53.784;10.440;2023-06-04T21:50:58;13.70;99.90
7155;DHT22;3619;53.784;10.440;2023-06-04T21:56:45;13.60;99.90
7155;DHT22;3619;53.784;10.440;2023-06-04T21:59:28;13.60;99.90
7155;DHT22;3619;53.784;10.440;2023-06-04T22:03:05;13.60;99.90
7155;DHT22;3619;53.784;10.440;2023-06-04T22:05:31;13.50;99.90
7155;DHT22;3619;53.784;10.440;2023-06-04T22:07:54;13.50;99.90
7155;DHT22;3619;53.784;10.440;2023-06-04T22:17:53;13.40;99.90
7155;DHT22;3619;53.784;10.440;2023-06-04T22:21:34;13.20;99.90
7155;DHT22;3619;53.784;10.440;2023-06-04T22:23:39;13.20;99.90
7155;DHT22;3619;53.784;10.440;2023-06-04T22:26:39;13.20;99.90
7155;DHT22;3619;53.784;10.440;2023-06-04T22:29:48;13.10;99.90
7155;DHT22;3619;53.784;10.440;2023-06-04T22:59:27;12.70;99.90
7155;DHT22;3619;53.784;10.440;2023-06-04T23:03:39;12.70;99.90
7155;DHT22;3619;53.784;10.440;2023-06-04T23:04:50;12.70;99.90
7155;DHT22;3619;53.784;10.440;2023-06-04T23:07:24;12.60;99.90
7155;DHT22;3619;53.784;10.440;2023-06-04T23:10:09;12.60;99.90
7155;DHT22;3619;53.784;10.440;2023-06-04T23:13:10;12.60;99.90
7155;DHT22;3619;53.784;10.440;2023-06-04T23:19:03;12.40;99.90
7155;DHT22;3619;53.784;10.440;2023-06-04T23:21:47;12.40;99.90
7155;DHT22;3619;53.784;10.440;2023-06-04T23:24:21;12.20;99.90
7155;DHT22;3619;53.784;10.440;2023-06-04T23:27:20;12.00;99.90
7155;DHT22;3619;53.784;10.440;2023-06-04T23:29:51;11.70;99.90
7155;DHT22;3619;53.784;10.440;2023-06-04T23:32:35;11.50;99.90
7155;DHT22;3619;53.784;10.440;2023-06-04T23:36:25;11.30;99.90
7155;DHT22;3619;53.784;10.440;2023-06-04T23:39:51;11.10;99.90
7155;DHT22;3619;53.784;10.440;2023-06-04T23:42:24;11.00;99.90
7155;DHT22;3619;53.784;10.440;2023-06-04T23:44:51;10.90;99.90
7155;DHT22;3619;53.784;10.440;2023-06-04T23:47:36;11.00;99.90
7155;DHT22;3619;53.784;10.440;2023-06-04T23:50:30;11.10;99.90
7155;DHT22;3619;53.784;10.440;2023-06-04T23:54:26;11.30;99.90
7155;DHT22;3619;53.784;10.440;2023-06-04T23:56:17;11.40;99.90
7155;DHT22;3619;53.784;10.440;2023-06-04T23:59:53;11.40;99.90
